sensor_id;sensor_type;location;lat;lon;timestamp;P1;durP1;ratioP1;P2;durP2;ratioP2
9848;SDS011;4963;51.444;6.528;2023-06-14T00:00:53;6.10;;;5.50;;
9848;SDS011;4963;51.444;6.528;2023-06-14T00:03:21;8.68;;;5.63;;
9848;SDS011;4963;51.444;6.528;2023-06-14T00:05:51;10.13;;;5.97;;
9848;SDS011;4963;51.444;6.528;2023-06-14T00:08:18;7.85;;;6.15;;
9848;SDS011;4963;51.444;6.528;2023-06-14T00:10:46;9.35;;;5.68;;
9848;SDS011;4963;51.444;6.528;2023-06-14T00:13:13;7.25;;;5.18;;
9848;SDS011;4963;51.444;6.528;2023-06-14T00:15:40;7.90;;;6.13;;
9848;SDS011;4963;51.444;6.528;2023-06-14T00:18:07;6.57;;;5.32;;
9848;SDS011;4963;51.444;6.528;2023-06-14T00:20:36;6.70;;;5.35;;
9848;SDS011;4963;51.444;6.528;2023-06-14T00:23:05;5.57;;;4.88;;
9848;SDS011;4963;51.444;6.528;2023-06-14T00:25:32;7.57;;;5.63;;
9848;SDS011;4963;51.444;6.528;2023-06-14T00:27:59;7.53;;;5.40;;
9848;SDS011;4963;51.444;6.528;2023-06-14T00:30:26;7.35;;;5.22;;
9848;SDS011;4963;51.444;6.528;2023-06-14T00:32:55;7.00;;;5.63;;
9848;SDS011;4963;51.444;6.528;2023-06-14T00:35:22;6.50;;;5.50;;
9848;SDS011;4963;51.444;6.528;2023-06-14T00:37:49;8.25;;;5.40;;
9848;SDS011;4963;51.444;6.528;2023-06-14T00:40:17;8.68;;;5.47;;
9848;SDS011;4963;51.444;6.528;2023-06-14T00:42:44;6.03;;;5.43;;
9848;SDS011;4963;51.444;6.528;2023-06-14T00:45:11;6.25;;;5.38;;
9848;SDS011;4963;51.444;6.528;2023-06-14T00:47:39;8.27;;;5.45;;
9848;SDS011;4963;51.444;6.528;2023-06-14T00:50:07;7.00;;;5.40;;
9848;SDS011;4963;51.444;6.528;2023-06-14T00:52:36;7.80;;;5.22;;
9848;SDS011;4963;51.444;6.528;2023-06-14T00:55:03;6.90;;;5.82;;
9848;SDS011;4963;51.444;6.528;2023-06-14T00:57:32;8.13;;;5.57;;
9848;SDS011;4963;51.444;6.528;2023-06-14T01:00:02;8.88;;;5.85;;
9848;SDS011;4963;51.444;6.528;2023-06-14T01:02:34;7.97;;;5.20;;
9848;SDS011;4963;51.444;6.528;2023-06-14T01:05:01;9.65;;;5.60;;
9848;SDS011;4963;51.444;6.528;2023-06-14T01:07:32;7.82;;;5.82;;
9848;SDS011;4963;51.444;6.528;2023-06-14T01:10:13;10.20;;;5.85;;
9848;SDS011;4963;51.444;6.528;2023-06-14T01:12:51;6.40;;;5.40;;
9848;SDS011;4963;51.444;6.528;2023-06-14T01:15:23;11.02;;;5.95;;
9848;SDS011;4963;51.444;6.528;2023-06-14T01:17:50;10.75;;;5.78;;
9848;SDS011;4963;51.444;6.528;2023-06-14T01:20:19;7.18;;;5.47;;
9848;SDS011;4963;51.444;6.528;2023-06-14T01:22:51;10.65;;;5.63;;
9848;SDS011;4963;51.444;6.528;2023-06-14T01:25:19;7.85;;;5.47;;
9848;SDS011;4963;51.444;6.528;2023-06-14T01:27:48;8.52;;;5.47;;
9848;SDS011;4963;51.444;6.528;2023-06-14T01:30:16;8.50;;;5.40;;
9848;SDS011;4963;51.444;6.528;2023-06-14T01:32:44;16.70;;;6.28;;
9848;SDS011;4963;51.444;6.528;2023-06-14T01:35:12;6.22;;;5.40;;
9848;SDS011;4963;51.444;6.528;2023-06-14T01:37:39;7.90;;;5.55;;
9848;SDS011;4963;51.444;6.528;2023-06-14T01:40:09;8.10;;;5.88;;
9848;SDS011;4963;51.444;6.528;2023-06-14T01:42:38;7.13;;;5.80;;
9848;SDS011;4963;51.444;6.528;2023-06-14T01:45:05;6.97;;;5.70;;
9848;SDS011;4963;51.444;6.528;2023-06-14T01:47:33;7.80;;;5.20;;
9848;SDS011;4963;51.444;6.528;2023-06-14T01:50:01;9.98;;;5.68;;
9848;SDS011;4963;51.444;6.528;2023-06-14T01:52:28;7.63;;;4.93;;
9848;SDS011;4963;51.444;6.528;2023-06-14T01:54:55;7.65;;;5.30;;
9848;SDS011;4963;51.444;6.528;2023-06-14T01:57:24;8.68;;;5.40;;
9848;SDS011;4963;51.444;6.528;2023-06-14T01:59:52;9.05;;;5.50;;
9848;SDS011;4963;51.444;6.528;2023-06-14T02:02:19;7.30;;;5.05;;
9848;SDS011;4963;51.444;6.528;2023-06-14T02:04:45;7.63;;;5.20;;
9848;SDS011;4963;51.444;6.528;2023-06-14T02:07:12;7.63;;;5.55;;
9848;SDS011;4963;51.444;6.528;2023-06-14T02:09:39;8.55;;;5.00;;
9848;SDS011;4963;51.444;6.528;2023-06-14T02:12:07;7.07;;;5.18;;
9848;SDS011;4963;51.444;6.528;2023-06-14T02:14:36;5.85;;;5.15;;
9848;SDS011;4963;51.444;6.528;2023-06-14T02:17:04;7.07;;;5.43;;
9848;SDS011;4963;51.444;6.528;2023-06-14T02:19:31;6.75;;;5.47;;
9848;SDS011;4963;51.444;6.528;2023-06-14T02:21:58;7.28;;;4.95;;
9848;SDS011;4963;51.444;6.528;2023-06-14T02:24:25;6.68;;;5.20;;
9848;SDS011;4963;51.444;6.528;2023-06-14T02:26:52;10.30;;;5.15;;
9848;SDS011;4963;51.444;6.528;2023-06-14T02:29:19;6.18;;;5.15;;
9848;SDS011;4963;51.444;6.528;2023-06-14T02:31:47;6.82;;;4.53;;
9848;SDS011;4963;51.444;6.528;2023-06-14T02:34:14;9.00;;;5.10;;
9848;SDS011;4963;51.444;6.528;2023-06-14T02:36:43;8.43;;;4.47;;
9848;SDS011;4963;51.444;6.528;2023-06-14T02:39:09;8.02;;;5.07;;
9848;SDS011;4963;51.444;6.528;2023-06-14T02:41:36;5.40;;;4.55;;
9848;SDS011;4963;51.444;6.528;2023-06-14T02:44:04;9.77;;;4.85;;
9848;SDS011;4963;51.444;6.528;2023-06-14T02:46:31;7.93;;;4.60;;
9848;SDS011;4963;51.444;6.528;2023-06-14T02:48:59;6.55;;;5.05;;
9848;SDS011;4963;51.444;6.528;2023-06-14T02:51:26;6.90;;;4.45;;
9848;SDS011;4963;51.444;6.528;2023-06-14T02:53:52;9.63;;;4.88;;
9848;SDS011;4963;51.444;6.528;2023-06-14T02:56:20;7.55;;;4.75;;
9848;SDS011;4963;51.444;6.528;2023-06-14T02:58:47;11.70;;;4.95;;
9848;SDS011;4963;51.444;6.528;2023-06-14T03:01:15;5.53;;;4.55;;
9848;SDS011;4963;51.444;6.528;2023-06-14T03:03:43;9.85;;;4.93;;
9848;SDS011;4963;51.444;6.528;2023-06-14T03:06:11;7.45;;;4.97;;
9848;SDS011;4963;51.444;6.528;2023-06-14T03:08:39;8.07;;;4.85;;
9848;SDS011;4963;51.444;6.528;2023-06-14T03:11:06;5.32;;;4.45;;
9848;SDS011;4963;51.444;6.528;2023-06-14T03:13:33;5.85;;;4.65;;
9848;SDS011;4963;51.444;6.528;2023-06-14T03:16:00;6.38;;;4.82;;
9848;SDS011;4963;51.444;6.528;2023-06-14T03:18:28;7.88;;;4.53;;
9848;SDS011;4963;51.444;6.528;2023-06-14T03:20:56;6.13;;;4.78;;
9848;SDS011;4963;51.444;6.528;2023-06-14T03:23:24;9.23;;;4.85;;
9848;SDS011;4963;51.444;6.528;2023-06-14T03:25:52;7.55;;;5.20;;
9848;SDS011;4963;51.444;6.528;2023-06-14T03:28:18;7.72;;;4.50;;
9848;SDS011;4963;51.444;6.528;2023-06-14T03:30:45;5.90;;;5.00;;
9848;SDS011;4963;51.444;6.528;2023-06-14T03:33:12;7.15;;;4.68;;
9848;SDS011;4963;51.444;6.528;2023-06-14T03:35:40;7.20;;;4.95;;
9848;SDS011;4963;51.444;6.528;2023-06-14T03:38:07;7.15;;;4.95;;
9848;SDS011;4963;51.444;6.528;2023-06-14T03:40:35;6.93;;;5.00;;
9848;SDS011;4963;51.444;6.528;2023-06-14T03:43:02;7.05;;;4.57;;
9848;SDS011;4963;51.444;6.528;2023-06-14T03:45:29;6.65;;;5.20;;
9848;SDS011;4963;51.444;6.528;2023-06-14T03:47:56;6.32;;;5.10;;
9848;SDS011;4963;51.444;6.528;2023-06-14T03:50:23;10.55;;;5.30;;
9848;SDS011;4963;51.444;6.528;2023-06-14T03:52:50;9.43;;;4.72;;
9848;SDS011;4963;51.444;6.528;2023-06-14T03:55:17;6.43;;;4.85;;
9848;SDS011;4963;51.444;6.528;2023-06-14T03:57:45;5.28;;;4.53;;
9848;SDS011;4963;51.444;6.528;2023-06-14T04:00:12;6.43;;;4.75;;
9848;SDS011;4963;51.444;6.528;2023-06-14T04:02:40;6.47;;;4.43;;
9848;SDS011;4963;51.444;6.528;2023-06-14T04:05:07;6.00;;;4.53;;
9848;SDS011;4963;51.444;6.528;2023-06-14T04:07:34;9.73;;;4.85;;
9848;SDS011;4963;51.444;6.528;2023-06-14T04:10:05;7.00;;;4.90;;
9848;SDS011;4963;51.444;6.528;2023-06-14T04:12:33;10.13;;;5.32;;
9848;SDS011;4963;51.444;6.528;2023-06-14T04:15:02;9.35;;;5.60;;
9848;SDS011;4963;51.444;6.528;2023-06-14T04:17:31;9.05;;;5.03;;
9848;SDS011;4963;51.444;6.528;2023-06-14T04:19:59;8.88;;;4.75;;
9848;SDS011;4963;51.444;6.528;2023-06-14T04:22:25;5.78;;;4.57;;
9848;SDS011;4963;51.444;6.528;2023-06-14T04:24:53;6.85;;;4.03;;
9848;SDS011;4963;51.444;6.528;2023-06-14T04:27:21;7.03;;;4.50;;
9848;SDS011;4963;51.444;6.528;2023-06-14T04:29:50;8.02;;;4.57;;
9848;SDS011;4963;51.444;6.528;2023-06-14T04:32:23;7.80;;;5.00;;
9848;SDS011;4963;51.444;6.528;2023-06-14T04:34:51;9.35;;;5.03;;
9848;SDS011;4963;51.444;6.528;2023-06-14T04:37:19;5.68;;;4.90;;
9848;SDS011;4963;51.444;6.528;2023-06-14T04:39:47;6.80;;;4.75;;
9848;SDS011;4963;51.444;6.528;2023-06-14T04:42:14;10.18;;;5.30;;
9848;SDS011;4963;51.444;6.528;2023-06-14T04:44:41;6.70;;;5.03;;
9848;SDS011;4963;51.444;6.528;2023-06-14T04:47:08;10.38;;;4.78;;
9848;SDS011;4963;51.444;6.528;2023-06-14T04:49:38;7.60;;;4.80;;
9848;SDS011;4963;51.444;6.528;2023-06-14T04:52:06;6.82;;;5.32;;
9848;SDS011;4963;51.444;6.528;2023-06-14T04:54:35;6.20;;;4.60;;
9848;SDS011;4963;51.444;6.528;2023-06-14T04:57:03;7.40;;;5.05;;
9848;SDS011;4963;51.444;6.528;2023-06-14T04:59:30;8.40;;;4.60;;
9848;SDS011;4963;51.444;6.528;2023-06-14T05:01:58;9.02;;;4.68;;
9848;SDS011;4963;51.444;6.528;2023-06-14T05:04:25;10.93;;;4.85;;
9848;SDS011;4963;51.444;6.528;2023-06-14T05:06:54;7.80;;;5.03;;
9848;SDS011;4963;51.444;6.528;2023-06-14T05:09:21;6.50;;;4.00;;
9848;SDS011;4963;51.444;6.528;2023-06-14T05:11:48;7.80;;;4.20;;
9848;SDS011;4963;51.444;6.528;2023-06-14T05:14:15;8.65;;;4.43;;
9848;SDS011;4963;51.444;6.528;2023-06-14T05:16:42;8.98;;;3.97;;
9848;SDS011;4963;51.444;6.528;2023-06-14T05:19:09;11.75;;;4.72;;
9848;SDS011;4963;51.444;6.528;2023-06-14T05:21:36;7.53;;;4.10;;
9848;SDS011;4963;51.444;6.528;2023-06-14T05:24:04;5.85;;;3.65;;
9848;SDS011;4963;51.444;6.528;2023-06-14T05:26:33;8.52;;;3.67;;
9848;SDS011;4963;51.444;6.528;2023-06-14T05:29:00;6.80;;;4.20;;
9848;SDS011;4963;51.444;6.528;2023-06-14T05:31:28;5.45;;;3.83;;
9848;SDS011;4963;51.444;6.528;2023-06-14T05:33:55;7.80;;;3.83;;
9848;SDS011;4963;51.444;6.528;2023-06-14T05:36:21;5.55;;;4.30;;
9848;SDS011;4963;51.444;6.528;2023-06-14T05:38:48;6.57;;;4.20;;
9848;SDS011;4963;51.444;6.528;2023-06-14T05:41:17;10.00;;;4.50;;
9848;SDS011;4963;51.444;6.528;2023-06-14T05:43:45;11.32;;;4.40;;
9848;SDS011;4963;51.444;6.528;2023-06-14T05:46:12;8.43;;;4.30;;
9848;SDS011;4963;51.444;6.528;2023-06-14T05:48:40;8.40;;;4.03;;
9848;SDS011;4963;51.444;6.528;2023-06-14T05:51:06;6.07;;;4.22;;
9848;SDS011;4963;51.444;6.528;2023-06-14T05:53:34;8.07;;;3.90;;
9848;SDS011;4963;51.444;6.528;2023-06-14T05:56:01;8.70;;;3.88;;
9848;SDS011;4963;51.444;6.528;2023-06-14T05:58:29;6.70;;;3.90;;
9848;SDS011;4963;51.444;6.528;2023-06-14T06:00:56;6.10;;;4.03;;
9848;SDS011;4963;51.444;6.528;2023-06-14T06:03:23;8.77;;;4.10;;
9848;SDS011;4963;51.444;6.528;2023-06-14T06:05:50;5.45;;;3.92;;
9848;SDS011;4963;51.444;6.528;2023-06-14T06:08:17;7.95;;;3.70;;
9848;SDS011;4963;51.444;6.528;2023-06-14T06:10:43;6.47;;;3.78;;
9848;SDS011;4963;51.444;6.528;2023-06-14T06:13:10;6.55;;;3.63;;
9848;SDS011;4963;51.444;6.528;2023-06-14T06:15:38;8.68;;;3.97;;
9848;SDS011;4963;51.444;6.528;2023-06-14T06:18:05;9.45;;;4.03;;
9848;SDS011;4963;51.444;6.528;2023-06-14T06:20:32;6.97;;;4.10;;
9848;SDS011;4963;51.444;6.528;2023-06-14T06:23:01;11.32;;;3.75;;
9848;SDS011;4963;51.444;6.528;2023-06-14T06:25:28;10.38;;;4.30;;
9848;SDS011;4963;51.444;6.528;2023-06-14T06:27:56;16.00;;;4.22;;
9848;SDS011;4963;51.444;6.528;2023-06-14T06:30:24;8.65;;;3.90;;
9848;SDS011;4963;51.444;6.528;2023-06-14T06:32:52;6.65;;;3.58;;
9848;SDS011;4963;51.444;6.528;2023-06-14T06:35:20;9.32;;;3.72;;
9848;SDS011;4963;51.444;6.528;2023-06-14T06:37:47;6.88;;;3.58;;
9848;SDS011;4963;51.444;6.528;2023-06-14T06:40:14;8.05;;;3.67;;
9848;SDS011;4963;51.444;6.528;2023-06-14T06:42:41;7.18;;;3.55;;
9848;SDS011;4963;51.444;6.528;2023-06-14T06:45:08;9.00;;;4.03;;
9848;SDS011;4963;51.444;6.528;2023-06-14T06:47:36;8.48;;;3.70;;
9848;SDS011;4963;51.444;6.528;2023-06-14T06:50:04;6.38;;;3.47;;
9848;SDS011;4963;51.444;6.528;2023-06-14T06:52:32;11.80;;;4.15;;
9848;SDS011;4963;51.444;6.528;2023-06-14T06:54:59;7.38;;;3.50;;
9848;SDS011;4963;51.444;6.528;2023-06-14T06:57:28;6.32;;;3.45;;
9848;SDS011;4963;51.444;6.528;2023-06-14T06:59:55;5.07;;;4.05;;
9848;SDS011;4963;51.444;6.528;2023-06-14T07:02:22;8.00;;;3.70;;
9848;SDS011;4963;51.444;6.528;2023-06-14T07:04:48;6.63;;;3.30;;
9848;SDS011;4963;51.444;6.528;2023-06-14T07:07:17;9.63;;;3.67;;
9848;SDS011;4963;51.444;6.528;2023-06-14T07:09:43;7.25;;;3.35;;
9848;SDS011;4963;51.444;6.528;2023-06-14T07:12:11;5.40;;;3.53;;
9848;SDS011;4963;51.444;6.528;2023-06-14T07:14:38;5.32;;;2.70;;
9848;SDS011;4963;51.444;6.528;2023-06-14T07:17:05;8.38;;;3.42;;
9848;SDS011;4963;51.444;6.528;2023-06-14T07:19:32;5.57;;;2.60;;
9848;SDS011;4963;51.444;6.528;2023-06-14T07:21:59;5.40;;;2.97;;
9848;SDS011;4963;51.444;6.528;2023-06-14T07:24:27;7.68;;;2.83;;
9848;SDS011;4963;51.444;6.528;2023-06-14T07:26:54;5.63;;;2.28;;
9848;SDS011;4963;51.444;6.528;2023-06-14T07:29:21;4.25;;;2.33;;
9848;SDS011;4963;51.444;6.528;2023-06-14T07:31:48;2.85;;;2.33;;
9848;SDS011;4963;51.444;6.528;2023-06-14T07:34:15;7.75;;;1.98;;
9848;SDS011;4963;51.444;6.528;2023-06-14T07:36:42;3.55;;;2.42;;
9848;SDS011;4963;51.444;6.528;2023-06-14T07:39:10;4.72;;;2.15;;
9848;SDS011;4963;51.444;6.528;2023-06-14T07:41:38;3.97;;;2.38;;
9848;SDS011;4963;51.444;6.528;2023-06-14T07:44:05;5.90;;;2.28;;
9848;SDS011;4963;51.444;6.528;2023-06-14T07:46:32;5.38;;;2.10;;
9848;SDS011;4963;51.444;6.528;2023-06-14T07:48:59;4.80;;;2.38;;
9848;SDS011;4963;51.444;6.528;2023-06-14T07:51:26;3.20;;;2.05;;
9848;SDS011;4963;51.444;6.528;2023-06-14T07:53:53;3.90;;;2.10;;
9848;SDS011;4963;51.444;6.528;2023-06-14T07:56:20;5.22;;;2.50;;
9848;SDS011;4963;51.444;6.528;2023-06-14T07:58:48;6.10;;;2.13;;
9848;SDS011;4963;51.444;6.528;2023-06-14T08:01:15;4.00;;;2.15;;
9848;SDS011;4963;51.444;6.528;2023-06-14T08:03:42;7.22;;;2.35;;
9848;SDS011;4963;51.444;6.528;2023-06-14T08:06:09;5.78;;;2.70;;
9848;SDS011;4963;51.444;6.528;2023-06-14T08:08:35;4.80;;;2.22;;
9848;SDS011;4963;51.444;6.528;2023-06-14T08:11:02;3.25;;;2.00;;
9848;SDS011;4963;51.444;6.528;2023-06-14T08:13:29;4.65;;;2.38;;
9848;SDS011;4963;51.444;6.528;2023-06-14T08:15:58;4.68;;;2.05;;
9848;SDS011;4963;51.444;6.528;2023-06-14T08:18:26;3.28;;;2.25;;
9848;SDS011;4963;51.444;6.528;2023-06-14T08:20:53;3.90;;;2.50;;
9848;SDS011;4963;51.444;6.528;2023-06-14T08:23:20;8.07;;;2.80;;
9848;SDS011;4963;51.444;6.528;2023-06-14T08:25:47;5.70;;;2.40;;
9848;SDS011;4963;51.444;6.528;2023-06-14T08:28:14;4.95;;;2.42;;
9848;SDS011;4963;51.444;6.528;2023-06-14T08:30:41;2.95;;;2.10;;
9848;SDS011;4963;51.444;6.528;2023-06-14T08:33:10;4.00;;;2.60;;
9848;SDS011;4963;51.444;6.528;2023-06-14T08:35:37;4.47;;;2.72;;
9848;SDS011;4963;51.444;6.528;2023-06-14T08:38:04;5.03;;;2.83;;
9848;SDS011;4963;51.444;6.528;2023-06-14T08:40:31;4.20;;;2.45;;
9848;SDS011;4963;51.444;6.528;2023-06-14T08:43:03;4.38;;;2.45;;
9848;SDS011;4963;51.444;6.528;2023-06-14T08:45:30;3.97;;;2.00;;
9848;SDS011;4963;51.444;6.528;2023-06-14T08:47:57;6.50;;;2.60;;
9848;SDS011;4963;51.444;6.528;2023-06-14T08:50:28;6.38;;;2.42;;
9848;SDS011;4963;51.444;6.528;2023-06-14T08:52:57;2.92;;;2.10;;
9848;SDS011;4963;51.444;6.528;2023-06-14T08:55:27;4.93;;;2.15;;
9848;SDS011;4963;51.444;6.528;2023-06-14T08:57:55;3.88;;;2.33;;
9848;SDS011;4963;51.444;6.528;2023-06-14T09:00:23;4.20;;;2.47;;
9848;SDS011;4963;51.444;6.528;2023-06-14T09:02:51;2.75;;;2.40;;
9848;SDS011;4963;51.444;6.528;2023-06-14T09:05:22;5.68;;;2.42;;
9848;SDS011;4963;51.444;6.528;2023-06-14T09:07:51;7.82;;;2.85;;
9848;SDS011;4963;51.444;6.528;2023-06-14T09:10:20;4.57;;;2.38;;
9848;SDS011;4963;51.444;6.528;2023-06-14T09:12:47;3.15;;;1.98;;
9848;SDS011;4963;51.444;6.528;2023-06-14T09:15:14;3.33;;;2.55;;
9848;SDS011;4963;51.444;6.528;2023-06-14T09:17:42;4.00;;;2.03;;
9848;SDS011;4963;51.444;6.528;2023-06-14T09:20:09;2.13;;;1.70;;
9848;SDS011;4963;51.444;6.528;2023-06-14T09:22:38;3.83;;;2.10;;
9848;SDS011;4963;51.444;6.528;2023-06-14T09:25:08;4.18;;;2.03;;
9848;SDS011;4963;51.444;6.528;2023-06-14T09:27:36;2.55;;;2.03;;
9848;SDS011;4963;51.444;6.528;2023-06-14T09:30:05;4.40;;;2.45;;
9848;SDS011;4963;51.444;6.528;2023-06-14T09:32:35;3.08;;;2.40;;
9848;SDS011;4963;51.444;6.528;2023-06-14T09:35:04;3.97;;;2.17;;
9848;SDS011;4963;51.444;6.528;2023-06-14T09:37:32;5.15;;;2.33;;
9848;SDS011;4963;51.444;6.528;2023-06-14T09:39:59;6.40;;;2.70;;
9848;SDS011;4963;51.444;6.528;2023-06-14T09:42:28;3.50;;;2.22;;
9848;SDS011;4963;51.444;6.528;2023-06-14T09:44:55;3.20;;;2.08;;
9848;SDS011;4963;51.444;6.528;2023-06-14T09:47:23;8.20;;;2.40;;
9848;SDS011;4963;51.444;6.528;2023-06-14T09:49:50;3.20;;;2.28;;
9848;SDS011;4963;51.444;6.528;2023-06-14T09:52:19;3.00;;;2.10;;
9848;SDS011;4963;51.444;6.528;2023-06-14T09:54:47;7.93;;;2.20;;
9848;SDS011;4963;51.444;6.528;2023-06-14T09:57:16;5.05;;;2.38;;
9848;SDS011;4963;51.444;6.528;2023-06-14T09:59:48;2.95;;;2.20;;
9848;SDS011;4963;51.444;6.528;2023-06-14T10:02:21;3.30;;;2.67;;
9848;SDS011;4963;51.444;6.528;2023-06-14T10:04:53;6.70;;;2.20;;
9848;SDS011;4963;51.444;6.528;2023-06-14T10:07:26;2.65;;;2.33;;
9848;SDS011;4963;51.444;6.528;2023-06-14T10:09:55;5.25;;;2.55;;
9848;SDS011;4963;51.444;6.528;2023-06-14T10:12:22;5.40;;;2.38;;
9848;SDS011;4963;51.444;6.528;2023-06-14T10:14:51;5.07;;;2.30;;
9848;SDS011;4963;51.444;6.528;2023-06-14T10:17:20;3.03;;;2.20;;
9848;SDS011;4963;51.444;6.528;2023-06-14T10:19:54;3.85;;;2.40;;
9848;SDS011;4963;51.444;6.528;2023-06-14T10:22:26;5.55;;;2.45;;
9848;SDS011;4963;51.444;6.528;2023-06-14T10:24:58;3.20;;;2.35;;
9848;SDS011;4963;51.444;6.528;2023-06-14T10:27:28;2.80;;;2.40;;
9848;SDS011;4963;51.444;6.528;2023-06-14T10:30:05;4.07;;;2.13;;
9848;SDS011;4963;51.444;6.528;2023-06-14T10:32:34;5.45;;;2.13;;
9848;SDS011;4963;51.444;6.528;2023-06-14T10:35:01;2.63;;;1.80;;
9848;SDS011;4963;51.444;6.528;2023-06-14T10:37:32;3.33;;;1.70;;
9848;SDS011;4963;51.444;6.528;2023-06-14T10:39:59;2.63;;;2.10;;
9848;SDS011;4963;51.444;6.528;2023-06-14T10:42:31;3.75;;;1.75;;
9848;SDS011;4963;51.444;6.528;2023-06-14T10:44:58;3.10;;;1.90;;
9848;SDS011;4963;51.444;6.528;2023-06-14T10:47:28;3.35;;;1.63;;
9848;SDS011;4963;51.444;6.528;2023-06-14T10:49:58;3.03;;;1.80;;
9848;SDS011;4963;51.444;6.528;2023-06-14T10:52:32;6.00;;;1.95;;
9848;SDS011;4963;51.444;6.528;2023-06-14T10:55:01;3.25;;;1.60;;
9848;SDS011;4963;51.444;6.528;2023-06-14T10:57:36;2.50;;;1.52;;
9848;SDS011;4963;51.444;6.528;2023-06-14T11:00:04;2.92;;;1.50;;
9848;SDS011;4963;51.444;6.528;2023-06-14T11:02:45;2.92;;;1.92;;
9848;SDS011;4963;51.444;6.528;2023-06-14T11:05:48;2.22;;;1.60;;
9848;SDS011;4963;51.444;6.528;2023-06-14T11:11:32;4.13;;;2.20;;
9848;SDS011;4963;51.444;6.528;2023-06-14T11:14:00;2.50;;;1.48;;
9848;SDS011;4963;51.444;6.528;2023-06-14T11:16:27;2.35;;;1.70;;
9848;SDS011;4963;51.444;6.528;2023-06-14T11:18:55;3.28;;;1.80;;
9848;SDS011;4963;51.444;6.528;2023-06-14T11:21:23;3.63;;;1.88;;
9848;SDS011;4963;51.444;6.528;2023-06-14T11:23:56;11.40;;;1.85;;
9848;SDS011;4963;51.444;6.528;2023-06-14T11:26:26;2.42;;;1.80;;
9848;SDS011;4963;51.444;6.528;2023-06-14T11:28:56;3.63;;;1.85;;
9848;SDS011;4963;51.444;6.528;2023-06-14T11:31:24;4.25;;;1.55;;
9848;SDS011;4963;51.444;6.528;2023-06-14T11:33:53;3.30;;;1.60;;
9848;SDS011;4963;51.444;6.528;2023-06-14T11:36:21;4.72;;;1.48;;
9848;SDS011;4963;51.444;6.528;2023-06-14T11:38:48;3.55;;;1.60;;
9848;SDS011;4963;51.444;6.528;2023-06-14T11:41:15;3.42;;;1.63;;
9848;SDS011;4963;51.444;6.528;2023-06-14T11:43:42;2.13;;;1.30;;
9848;SDS011;4963;51.444;6.528;2023-06-14T11:46:12;4.93;;;1.92;;
9848;SDS011;4963;51.444;6.528;2023-06-14T11:48:40;3.60;;;1.55;;
9848;SDS011;4963;51.444;6.528;2023-06-14T11:51:08;2.08;;;1.70;;
9848;SDS011;4963;51.444;6.528;2023-06-14T11:53:37;2.55;;;1.20;;
9848;SDS011;4963;51.444;6.528;2023-06-14T11:56:05;3.83;;;1.52;;
9848;SDS011;4963;51.444;6.528;2023-06-14T11:58:32;3.67;;;1.55;;
9848;SDS011;4963;51.444;6.528;2023-06-14T12:00:59;2.55;;;1.50;;
9848;SDS011;4963;51.444;6.528;2023-06-14T12:03:28;2.00;;;1.50;;
9848;SDS011;4963;51.444;6.528;2023-06-14T12:06:02;5.72;;;1.75;;
9848;SDS011;4963;51.444;6.528;2023-06-14T12:08:33;3.78;;;1.80;;
9848;SDS011;4963;51.444;6.528;2023-06-14T12:11:06;4.55;;;1.60;;
9848;SDS011;4963;51.444;6.528;2023-06-14T12:13:37;7.13;;;1.80;;
9848;SDS011;4963;51.444;6.528;2023-06-14T12:16:06;2.50;;;1.80;;
9848;SDS011;4963;51.444;6.528;2023-06-14T12:18:33;3.65;;;1.55;;
9848;SDS011;4963;51.444;6.528;2023-06-14T12:21:01;4.80;;;1.50;;
9848;SDS011;4963;51.444;6.528;2023-06-14T12:23:44;2.30;;;1.50;;
9848;SDS011;4963;51.444;6.528;2023-06-14T12:26:16;2.78;;;1.60;;
9848;SDS011;4963;51.444;6.528;2023-06-14T12:28:44;3.88;;;1.70;;
9848;SDS011;4963;51.444;6.528;2023-06-14T12:31:12;6.57;;;1.90;;
9848;SDS011;4963;51.444;6.528;2023-06-14T12:33:40;2.95;;;1.73;;
9848;SDS011;4963;51.444;6.528;2023-06-14T12:36:08;6.75;;;1.83;;
9848;SDS011;4963;51.444;6.528;2023-06-14T12:38:36;2.35;;;1.42;;
9848;SDS011;4963;51.444;6.528;2023-06-14T12:41:03;3.17;;;1.90;;
9848;SDS011;4963;51.444;6.528;2023-06-14T12:43:32;4.82;;;1.60;;
9848;SDS011;4963;51.444;6.528;2023-06-14T12:45:59;3.97;;;1.80;;
9848;SDS011;4963;51.444;6.528;2023-06-14T12:48:26;2.78;;;1.90;;
9848;SDS011;4963;51.444;6.528;2023-06-14T12:50:54;5.20;;;1.83;;
9848;SDS011;4963;51.444;6.528;2023-06-14T12:53:21;2.85;;;1.75;;
9848;SDS011;4963;51.444;6.528;2023-06-14T12:55:48;2.50;;;1.85;;
9848;SDS011;4963;51.444;6.528;2023-06-14T12:58:15;3.85;;;2.13;;
9848;SDS011;4963;51.444;6.528;2023-06-14T13:00:46;4.93;;;1.70;;
9848;SDS011;4963;51.444;6.528;2023-06-14T13:03:13;2.35;;;1.60;;
9848;SDS011;4963;51.444;6.528;2023-06-14T13:05:40;4.13;;;1.88;;
9848;SDS011;4963;51.444;6.528;2023-06-14T13:08:08;2.90;;;1.98;;
9848;SDS011;4963;51.444;6.528;2023-06-14T13:10:36;5.03;;;1.80;;
9848;SDS011;4963;51.444;6.528;2023-06-14T13:13:03;4.40;;;2.50;;
9848;SDS011;4963;51.444;6.528;2023-06-14T13:15:30;2.63;;;1.67;;
9848;SDS011;4963;51.444;6.528;2023-06-14T13:17:58;4.03;;;1.90;;
9848;SDS011;4963;51.444;6.528;2023-06-14T13:20:25;2.42;;;1.83;;
9848;SDS011;4963;51.444;6.528;2023-06-14T13:22:51;3.20;;;1.85;;
9848;SDS011;4963;51.444;6.528;2023-06-14T13:25:18;4.97;;;1.83;;
9848;SDS011;4963;51.444;6.528;2023-06-14T13:27:47;4.28;;;1.70;;
9848;SDS011;4963;51.444;6.528;2023-06-14T13:30:14;3.28;;;1.70;;
9848;SDS011;4963;51.444;6.528;2023-06-14T13:32:41;3.85;;;2.10;;
9848;SDS011;4963;51.444;6.528;2023-06-14T13:35:10;3.58;;;2.10;;
9848;SDS011;4963;51.444;6.528;2023-06-14T13:37:37;4.88;;;2.10;;
9848;SDS011;4963;51.444;6.528;2023-06-14T13:40:04;4.53;;;2.00;;
9848;SDS011;4963;51.444;6.528;2023-06-14T13:42:32;5.50;;;2.33;;
9848;SDS011;4963;51.444;6.528;2023-06-14T13:45:00;4.53;;;2.30;;
9848;SDS011;4963;51.444;6.528;2023-06-14T13:47:27;7.13;;;2.60;;
9848;SDS011;4963;51.444;6.528;2023-06-14T13:49:55;4.10;;;2.20;;
9848;SDS011;4963;51.444;6.528;2023-06-14T13:52:23;5.03;;;2.17;;
9848;SDS011;4963;51.444;6.528;2023-06-14T13:54:50;5.60;;;2.40;;
9848;SDS011;4963;51.444;6.528;2023-06-14T13:57:17;2.60;;;2.30;;
9848;SDS011;4963;51.444;6.528;2023-06-14T13:59:44;4.10;;;2.28;;
9848;SDS011;4963;51.444;6.528;2023-06-14T14:02:11;3.25;;;1.92;;
9848;SDS011;4963;51.444;6.528;2023-06-14T14:04:39;5.68;;;2.25;;
9848;SDS011;4963;51.444;6.528;2023-06-14T14:07:06;6.00;;;2.38;;
9848;SDS011;4963;51.444;6.528;2023-06-14T14:09:35;4.85;;;2.67;;
9848;SDS011;4963;51.444;6.528;2023-06-14T14:12:04;4.75;;;2.60;;
9848;SDS011;4963;51.444;6.528;2023-06-14T14:14:32;3.67;;;2.45;;
9848;SDS011;4963;51.444;6.528;2023-06-14T14:16:59;4.32;;;2.42;;
9848;SDS011;4963;51.444;6.528;2023-06-14T14:19:26;7.15;;;2.70;;
9848;SDS011;4963;51.444;6.528;2023-06-14T14:21:53;5.50;;;2.83;;
9848;SDS011;4963;51.444;6.528;2023-06-14T14:24:19;6.03;;;2.80;;
9848;SDS011;4963;51.444;6.528;2023-06-14T14:26:48;5.32;;;2.40;;
9848;SDS011;4963;51.444;6.528;2023-06-14T14:29:15;43.17;;;24.10;;
9848;SDS011;4963;51.444;6.528;2023-06-14T14:31:42;15.77;;;5.75;;
9848;SDS011;4963;51.444;6.528;2023-06-14T14:34:09;3.65;;;2.88;;
9848;SDS011;4963;51.444;6.528;2023-06-14T14:36:36;7.72;;;2.85;;
9848;SDS011;4963;51.444;6.528;2023-06-14T14:39:07;6.75;;;2.83;;
9848;SDS011;4963;51.444;6.528;2023-06-14T14:41:34;6.13;;;3.05;;
9848;SDS011;4963;51.444;6.528;2023-06-14T14:44:02;4.85;;;2.95;;
9848;SDS011;4963;51.444;6.528;2023-06-14T14:46:29;4.95;;;2.58;;
9848;SDS011;4963;51.444;6.528;2023-06-14T14:48:56;5.55;;;2.40;;
9848;SDS011;4963;51.444;6.528;2023-06-14T14:51:24;6.57;;;3.05;;
9848;SDS011;4963;51.444;6.528;2023-06-14T14:53:51;5.03;;;2.80;;
9848;SDS011;4963;51.444;6.528;2023-06-14T14:56:18;3.05;;;2.50;;
9848;SDS011;4963;51.444;6.528;2023-06-14T14:58:44;3.47;;;2.58;;
9848;SDS011;4963;51.444;6.528;2023-06-14T15:01:14;4.50;;;2.60;;
9848;SDS011;4963;51.444;6.528;2023-06-14T15:03:41;3.13;;;2.38;;
9848;SDS011;4963;51.444;6.528;2023-06-14T15:06:08;4.95;;;2.90;;
9848;SDS011;4963;51.444;6.528;2023-06-14T15:08:35;4.70;;;2.88;;
9848;SDS011;4963;51.444;6.528;2023-06-14T15:11:01;7.55;;;2.78;;
9848;SDS011;4963;51.444;6.528;2023-06-14T15:13:28;5.88;;;2.58;;
9848;SDS011;4963;51.444;6.528;2023-06-14T15:15:55;3.88;;;2.30;;
9848;SDS011;4963;51.444;6.528;2023-06-14T15:18:23;3.22;;;2.65;;
9848;SDS011;4963;51.444;6.528;2023-06-14T15:20:50;8.38;;;2.72;;
9848;SDS011;4963;51.444;6.528;2023-06-14T15:23:17;6.00;;;2.65;;